Terminal Aerodrome Forecast
Issued by NWS

Home | Current Version | Previous Version | Text Only | Print | Product List | Glossary On
Versions: 1 2 3 4 5 6 7 8 9 10 11 12 13 14 15 16 17 18 19 20 21 22 23 24
000
FTUS45 KREV 222000 AAA
TAFRNO
TAF AMD
KRNO 222033Z 2221/2318 27009KT 5SM FU HZ FEW090 SCT200
     FM222200 27009KT 2SM FU HZ FEW100 SCT200
     FM230200 VRB04KT 5SM HZ SCT200
     FM230700 VRB03KT P6SM SCT200=

USA.gov is the U.S. government's official web portal to all federal, state and local government web resources and services.